Time;durP1;ratioP1;P1;durP2;ratioP2;P2;SDS_P1;SDS_P2;PMS_P1;PMS_P2;Temp;Humidity;BMP_temperature;BMP_pressure;BME280_temperature;BME280_humidity;BME280_pressure;Samples;Min_cycle;Max_cycle;Signal;HPM_P1;HPM_P2
2022/10/07 00:01:34;;;;;;;14.18;2.38;;;;;;;12.99;100.00;100484.13;4859687;29;20037;-90
2022/10/07 00:04:02;;;;;;;12.63;2.03;;;;;;;13.03;100.00;100482.81;4843608;29;20045;-91
2022/10/07 00:06:31;;;;;;;15.05;2.03;;;;;;;13.01;100.00;100480.31;4831892;29;20034;-91
2022/10/07 00:09:01;;;;;;;10.95;1.92;;;;;;;13.01;100.00;100476.84;4874449;29;20042;-92
2022/10/07 00:11:31;;;;;;;7.78;1.65;;;;;;;13.07;100.00;100476.19;4860886;29;20041;-92
2022/10/07 00:14:06;;;;;;;10.48;1.65;;;;;;;13.09;100.00;100465.44;4832509;29;20048;-91
2022/10/07 00:16:40;;;;;;;9.55;1.10;;;;;;;13.08;100.00;100466.41;4861474;29;20045;-92
2022/10/07 00:19:12;;;;;;;13.30;2.03;;;;;;;13.12;100.00;100478.38;4833958;29;20070;-93
2022/10/07 00:21:42;;;;;;;10.45;1.63;;;;;;;13.11;100.00;100466.06;4846611;29;20414;-92
2022/10/07 00:24:11;;;;;;;11.85;1.95;;;;;;;13.09;100.00;100468.09;4846279;29;20033;-91
2022/10/07 00:26:39;;;;;;;9.85;1.50;;;;;;;13.13;100.00;100458.78;4849130;29;20030;-92
2022/10/07 00:29:08;;;;;;;11.27;1.33;;;;;;;13.12;100.00;100447.34;4841860;29;20065;-92
2022/10/07 00:31:37;;;;;;;13.88;1.65;;;;;;;13.11;100.00;100447.50;4846617;29;20037;-92
2022/10/07 00:34:04;;;;;;;10.57;2.08;;;;;;;13.11;100.00;100444.84;4833315;29;20051;-93
2022/10/07 00:36:37;;;;;;;12.80;2.28;;;;;;;13.15;100.00;100449.66;4828041;29;20048;-91
2022/10/07 00:39:11;;;;;;;8.65;1.67;;;;;;;13.11;100.00;100443.03;4846022;29;20052;-91
2022/10/07 00:41:45;;;;;;;10.80;1.73;;;;;;;13.12;100.00;100444.69;4860644;29;20045;-91
2022/10/07 00:44:34;;;;;;;7.78;1.48;;;;;;;13.06;100.00;100442.69;4831490;29;20040;-92
2022/10/07 00:47:13;;;;;;;10.00;1.70;;;;;;;13.10;100.00;100433.41;4861805;29;20490;-91
2022/10/07 00:50:03;;;;;;;9.02;0.98;;;;;;;13.06;100.00;100439.22;4864616;29;20041;-91
2022/10/07 00:52:37;;;;;;;14.57;1.55;;;;;;;13.05;100.00;100435.72;4875438;29;20049;-92
2022/10/07 00:55:13;;;;;;;11.90;1.92;;;;;;;13.02;100.00;100426.28;4827350;29;20478;-91
2022/10/07 00:57:45;;;;;;;14.38;1.63;;;;;;;12.97;100.00;100425.91;4872356;29;20041;-91
2022/10/07 01:00:16;;;;;;;13.25;1.75;;;;;;;12.93;100.00;100429.88;4863398;29;20074;-92
2022/10/07 01:02:47;;;;;;;18.30;2.25;;;;;;;12.87;100.00;100417.25;4846439;29;20053;-93
2022/10/07 01:05:18;;;;;;;10.50;1.75;;;;;;;12.83;100.00;100427.34;4830296;29;20567;-90
2022/10/07 01:07:50;;;;;;;15.75;2.67;;;;;;;12.83;100.00;100423.88;4831536;29;20068;-92
2022/10/07 01:10:23;;;;;;;13.80;2.22;;;;;;;12.79;100.00;100412.72;4846984;29;20454;-91
2022/10/07 01:13:06;;;;;;;10.27;1.90;;;;;;;12.73;100.00;100403.59;4840951;29;20055;-92
2022/10/07 01:15:43;;;;;;;13.63;2.20;;;;;;;12.73;100.00;100400.13;4860015;29;20128;-91
2022/10/07 01:18:24;;;;;;;12.55;2.22;;;;;;;12.70;100.00;100397.78;4846699;29;20069;-92
2022/10/07 01:21:10;;;;;;;6.93;1.50;;;;;;;12.69;100.00;100389.03;4861351;29;20038;-90
2022/10/07 01:24:08;;;;;;;14.55;2.10;;;;;;;12.68;100.00;100394.47;4847006;29;20483;-92
2022/10/07 01:27:04;;;;;;;12.77;1.65;;;;;;;12.67;100.00;100398.09;4841136;29;20108;-92
2022/10/07 01:29:42;;;;;;;17.83;2.40;;;;;;;12.64;100.00;100381.53;4846747;29;20132;-89
2022/10/07 01:32:24;;;;;;;11.63;1.60;;;;;;;12.63;100.00;100379.03;4857924;29;20045;-92
2022/10/07 01:34:55;;;;;;;15.32;1.30;;;;;;;12.62;100.00;100375.56;4846517;29;20038;-92
2022/10/07 01:37:29;;;;;;;10.63;1.20;;;;;;;12.64;100.00;100380.69;4845024;29;20038;-89
2022/10/07 01:40:05;;;;;;;10.25;1.88;;;;;;;12.64;100.00;100373.59;4860512;29;20044;-92
2022/10/07 01:42:35;;;;;;;12.35;1.63;;;;;;;12.63;100.00;100379.84;4840639;29;20052;-91
2022/10/07 01:45:08;;;;;;;14.07;1.80;;;;;;;12.63;100.00;100361.28;4861214;29;20061;-92
2022/10/07 01:47:38;;;;;;;12.63;2.10;;;;;;;12.67;100.00;100359.16;4860223;29;20045;-92
2022/10/07 01:50:12;;;;;;;10.23;1.30;;;;;;;12.68;100.00;100360.00;4861491;29;20037;-90
2022/10/07 01:53:17;;;;;;;12.43;1.52;;;;;;;12.68;100.00;100360.81;4846935;29;20049;-89
2022/10/07 01:56:13;;;;;;;13.23;2.10;;;;;;;12.69;100.00;100329.84;4869833;29;20050;-91
2022/10/07 01:58:55;;;;;;;12.68;1.73;;;;;;;12.73;100.00;100339.13;4843544;29;20050;-92
2022/10/07 02:01:42;;;;;;;9.73;1.13;;;;;;;12.75;100.00;100335.34;4877448;29;20501;-92
2022/10/07 02:04:34;;;;;;;11.43;1.42;;;;;;;12.74;100.00;100328.34;4841599;29;20073;-87
2022/10/07 02:07:32;;;;;;;8.90;1.80;;;;;;;12.77;100.00;100335.16;4856833;29;20038;-92
2022/10/07 02:10:35;;;;;;;12.05;1.70;;;;;;;12.78;100.00;100316.44;4846303;29;20542;-90
2022/10/07 02:13:11;;;;;;;11.13;1.45;;;;;;;12.80;100.00;100321.59;4843096;29;20049;-91
2022/10/07 02:15:51;;;;;;;12.45;1.77;;;;;;;12.84;100.00;100314.13;4855945;29;20045;-92
2022/10/07 02:18:20;;;;;;;15.07;1.65;;;;;;;12.88;100.00;100307.50;4842979;29;20033;-92
2022/10/07 02:20:50;;;;;;;12.48;1.83;;;;;;;12.89;100.00;100302.03;4846328;29;20051;-91
2022/10/07 02:23:23;;;;;;;13.10;2.25;;;;;;;12.90;100.00;100295.72;4849428;29;20069;-90
2022/10/07 02:25:53;;;;;;;9.48;1.63;;;;;;;12.90;100.00;100279.81;4862520;29;20034;-91
2022/10/07 02:28:25;;;;;;;12.52;1.77;;;;;;;12.89;100.00;100290.59;4847796;29;20049;-91
2022/10/07 02:31:00;;;;;;;12.45;1.52;;;;;;;12.85;100.00;100271.50;4826082;29;20486;-89
2022/10/07 02:33:31;;;;;;;12.02;1.73;;;;;;;12.84;100.00;100266.38;4846058;29;20036;-91
2022/10/07 02:36:04;;;;;;;16.63;2.25;;;;;;;12.82;100.00;100266.53;4843431;29;20072;-89
2022/10/07 02:38:34;;;;;;;17.15;2.35;;;;;;;12.82;100.00;100265.72;4841927;29;20424;-92
2022/10/07 02:41:31;;;;;;;14.57;1.95;;;;;;;12.80;100.00;100246.47;4845190;29;20041;-93
2022/10/07 02:44:19;;;;;;;9.52;1.77;;;;;;;12.80;100.00;100242.00;4853819;29;20132;-92
2022/10/07 02:46:54;;;;;;;13.30;1.65;;;;;;;12.80;100.00;100242.00;4844927;29;20114;-91
2022/10/07 02:49:26;;;;;;;10.45;1.83;;;;;;;12.81;100.00;100234.88;4842584;29;20097;-90
2022/10/07 02:52:04;;;;;;;15.60;1.90;;;;;;;12.84;100.00;100229.22;4847274;29;20037;-90
2022/10/07 02:54:43;;;;;;;11.57;1.73;;;;;;;12.85;100.00;100234.38;4835835;29;20042;-89
2022/10/07 02:57:17;;;;;;;13.23;1.90;;;;;;;12.87;100.00;100228.91;4829667;29;20096;-91
2022/10/07 02:59:49;;;;;;;13.80;1.92;;;;;;;12.90;100.00;100218.81;4849657;29;20166;-91
2022/10/07 03:02:29;;;;;;;12.15;1.63;;;;;;;12.90;100.00;100215.31;4845881;29;20033;-91
2022/10/07 03:04:59;;;;;;;14.60;2.30;;;;;;;12.91;100.00;100214.34;4859560;29;20089;-91
2022/10/07 03:07:29;;;;;;;10.52;1.73;;;;;;;12.92;100.00;100213.34;4842054;29;20049;-93
2022/10/07 03:09:59;;;;;;;14.27;1.98;;;;;;;12.93;100.00;100206.22;4854924;29;20444;-91
2022/10/07 03:12:29;;;;;;;11.95;1.90;;;;;;;12.95;100.00;100209.53;4842094;29;20037;-93
2022/10/07 03:14:59;;;;;;;11.43;1.70;;;;;;;12.96;100.00;100197.91;4855412;29;20045;-91
2022/10/07 03:17:29;;;;;;;14.43;2.35;;;;;;;12.97;100.00;100197.75;4830064;29;20038;-90
2022/10/07 03:19:58;;;;;;;14.07;2.17;;;;;;;12.98;100.00;100195.94;4828887;29;20471;-91
2022/10/07 03:22:26;;;;;;;12.82;1.95;;;;;;;12.96;100.00;100187.31;4857984;29;20109;-92
2022/10/07 03:24:54;;;;;;;19.63;1.77;;;;;;;12.94;100.00;100190.13;4854752;29;20547;-91
2022/10/07 03:27:22;;;;;;;14.38;1.85;;;;;;;12.94;100.00;100187.47;4848063;29;20054;-93
2022/10/07 03:29:51;;;;;;;10.93;2.22;;;;;;;12.95;100.00;100191.78;4851198;29;20052;-93
2022/10/07 03:32:19;;;;;;;13.90;2.33;;;;;;;12.94;100.00;100190.13;4845986;29;20102;-93
2022/10/07 03:34:47;;;;;;;10.93;1.75;;;;;;;12.98;100.00;100180.84;4860461;29;20077;-90
2022/10/07 03:37:15;;;;;;;12.90;1.88;;;;;;;12.98;100.00;100174.72;4860296;29;20041;-92
2022/10/07 03:39:43;;;;;;;16.45;1.92;;;;;;;12.98;100.00;100170.22;4831531;29;20037;-92
2022/10/07 03:42:12;;;;;;;10.07;1.60;;;;;;;12.98;100.00;100167.56;4855194;29;20037;-92
2022/10/07 03:44:40;;;;;;;9.15;1.65;;;;;;;13.00;100.00;100167.41;4861110;29;20089;-91
2022/10/07 03:47:08;;;;;;;10.38;2.15;;;;;;;12.99;100.00;100168.41;4859519;29;20038;-92
2022/10/07 03:49:36;;;;;;;13.20;1.90;;;;;;;12.97;100.00;100176.53;4832622;29;20089;-91
2022/10/07 03:52:05;;;;;;;12.65;1.42;;;;;;;12.94;100.00;100163.59;4870300;29;20110;-91
2022/10/07 03:54:34;;;;;;;14.32;1.50;;;;;;;12.98;100.00;100164.09;4861870;29;20168;-92
2022/10/07 03:57:48;;;;;;;13.73;2.03;;;;;;;12.97;100.00;100151.81;4832865;29;20060;-92
2022/10/07 03:59:53;;;;;;;9.95;1.80;;;;;;;12.98;100.00;100156.16;4843166;29;20037;-89
2022/10/07 04:02:23;;;;;;;9.50;1.60;;;;;;;12.98;100.00;100150.84;4825790;29;20038;-92
2022/10/07 04:04:53;;;;;;;11.18;1.75;;;;;;;12.99;100.00;100152.50;4874919;29;20052;-93
2022/10/07 04:07:25;;;;;;;10.25;1.95;;;;;;;12.98;100.00;100140.22;4862864;29;20037;-90
2022/10/07 04:09:55;;;;;;;13.77;1.92;;;;;;;12.97;100.00;100142.03;4852447;29;20048;-93
2022/10/07 04:12:31;;;;;;;9.57;1.88;;;;;;;12.98;100.00;100140.22;4842395;29;20065;-92
2022/10/07 04:15:01;;;;;;;17.05;1.73;;;;;;;12.98;100.00;100148.19;4839388;29;20046;-90
2022/10/07 04:17:32;;;;;;;9.48;1.50;;;;;;;12.97;100.00;100149.16;4825125;29;20561;-90
2022/10/07 04:20:02;;;;;;;11.15;1.15;;;;;;;12.98;100.00;100145.53;4832530;29;20049;-93
2022/10/07 04:22:32;;;;;;;8.50;1.33;;;;;;;12.98;100.00;100142.88;4827959;29;20081;-92
2022/10/07 04:27:55;;;;;;;13.60;2.00;;;;;;;12.98;100.00;100133.06;4875713;29;20042;-91
2022/10/07 04:30:26;;;;;;;11.32;1.20;;;;;;;13.01;100.00;100131.94;4862277;29;20037;-93
2022/10/07 04:32:56;;;;;;;10.43;2.47;;;;;;;13.00;100.00;100127.59;4844569;29;20042;-90
2022/10/07 04:35:24;;;;;;;15.23;1.73;;;;;;;12.97;100.00;100120.81;4832367;29;20037;-91
2022/10/07 04:37:53;;;;;;;11.90;2.15;;;;;;;12.98;100.00;100130.44;4861995;29;20064;-93
2022/10/07 04:40:26;;;;;;;15.98;1.63;;;;;;;12.97;100.00;100123.47;4862945;29;20045;-93
2022/10/07 04:45:54;;;;;;;9.93;1.83;;;;;;;12.94;100.00;100134.41;4862005;29;20045;-91
2022/10/07 04:48:25;;;;;;;14.93;1.77;;;;;;;12.91;100.00;100129.44;4831608;29;20062;-92
2022/10/07 04:50:56;;;;;;;11.13;1.90;;;;;;;12.84;100.00;100131.09;4849948;29;20041;-92
2022/10/07 04:53:26;;;;;;;13.93;1.67;;;;;;;12.80;100.00;100124.47;4846721;29;20037;-89
2022/10/07 04:55:56;;;;;;;12.93;2.00;;;;;;;12.74;100.00;100126.00;4860819;29;20033;-91
2022/10/07 04:58:24;;;;;;;12.52;1.67;;;;;;;12.72;100.00;100117.38;4831644;29;20041;-93
2022/10/07 05:00:56;;;;;;;12.32;1.63;;;;;;;12.71;100.00;100113.88;4860608;29;20068;-93
2022/10/07 05:03:28;;;;;;;17.00;2.40;;;;;;;12.70;100.00;100098.97;4847517;29;20037;-93
2022/10/07 05:06:02;;;;;;;18.02;2.03;;;;;;;12.68;100.00;100100.13;4847700;29;20066;-92
2022/10/07 05:08:33;;;;;;;11.85;1.70;;;;;;;12.67;100.00;100101.94;4830884;29;20502;-94
2022/10/07 05:11:03;;;;;;;14.15;2.13;;;;;;;12.68;100.00;100106.25;4847424;29;20487;-93
2022/10/07 05:13:39;;;;;;;8.10;1.63;;;;;;;12.67;100.00;100119.69;4833011;29;20136;-92
2022/10/07 05:16:08;;;;;;;7.65;1.45;;;;;;;12.67;100.00;100117.03;4849952;29;20034;-93
2022/10/07 05:18:38;;;;;;;15.70;2.10;;;;;;;12.68;100.00;100116.06;4861938;29;20169;-91
2022/10/07 05:21:10;;;;;;;11.73;1.83;;;;;;;12.65;100.00;100114.53;4860767;29;20117;-93
2022/10/07 05:23:43;;;;;;;6.80;1.27;;;;;;;12.71;100.00;100118.38;4834128;29;20041;-92
2022/10/07 05:26:15;;;;;;;12.30;1.70;;;;;;;12.67;100.00;100117.03;4846016;29;20033;-93
2022/10/07 05:28:48;;;;;;;11.35;2.08;;;;;;;12.67;100.00;100120.50;4824480;29;20045;-90
2022/10/07 05:31:21;;;;;;;13.65;1.90;;;;;;;12.64;100.00;100105.78;4846112;29;20061;-92
2022/10/07 05:33:55;;;;;;;9.23;1.40;;;;;;;12.63;100.00;100108.56;4861514;29;20037;-92
2022/10/07 05:36:26;;;;;;;11.52;1.90;;;;;;;12.61;100.00;100094.66;4831717;29;20044;-92
2022/10/07 05:38:57;;;;;;;14.07;1.98;;;;;;;12.55;100.00;100101.44;4828136;29;20030;-90
2022/10/07 05:41:32;;;;;;;10.57;1.50;;;;;;;12.61;100.00;100107.94;4842055;29;20053;-93
2022/10/07 05:44:02;;;;;;;7.82;1.13;;;;;;;12.61;100.00;100113.22;4847400;29;20044;-88
2022/10/07 05:46:30;;;;;;;11.60;1.67;;;;;;;12.65;100.00;100114.53;4858869;29;20143;-92
2022/10/07 05:48:59;;;;;;;9.52;1.35;;;;;;;12.62;100.00;100104.25;4841877;29;20038;-91
2022/10/07 05:51:33;;;;;;;10.27;1.30;;;;;;;12.58;100.00;100098.47;4828224;29;20562;-93
2022/10/07 05:54:01;;;;;;;7.13;1.50;;;;;;;12.56;100.00;100097.81;4860704;29;20052;-92
2022/10/07 05:56:37;;;;;;;6.00;1.08;;;;;;;12.56;100.00;100100.47;4856853;29;20118;-91
2022/10/07 05:59:06;;;;;;;10.30;1.40;;;;;;;12.57;100.00;100106.59;4844093;29;20034;-91
2022/10/07 06:01:34;;;;;;;7.35;1.35;;;;;;;12.54;100.00;100107.75;4845520;29;20093;-92
2022/10/07 06:04:08;;;;;;;8.65;1.23;;;;;;;12.55;100.00;100112.03;4841619;29;20060;-90
2022/10/07 06:06:42;;;;;;;9.82;1.33;;;;;;;12.53;100.00;100111.41;4857170;29;20104;-92
2022/10/07 06:15:04;;;;;;;7.88;1.27;;;;;;;12.53;100.00;100133.41;5138911;27;20119;-90
2022/10/07 06:17:36;;;;;;;11.05;1.65;;;;;;;12.57;100.00;100128.63;5117427;28;20050;-91
2022/10/07 06:20:09;;;;;;;10.07;1.45;;;;;;;12.57;100.00;100125.13;5109763;28;20038;-92
2022/10/07 06:22:39;;;;;;;7.70;1.35;;;;;;;12.59;100.00;100131.13;5112017;27;20031;-92
2022/10/07 06:25:09;;;;;;;6.35;1.38;;;;;;;12.58;100.00;100127.63;5102920;27;20083;-92
2022/10/07 06:27:38;;;;;;;8.55;1.20;;;;;;;12.55;100.00;100124.50;5115723;28;20031;-92
2022/10/07 06:30:07;;;;;;;6.78;1.05;;;;;;;12.56;100.00;100128.78;5100830;28;20027;-91
2022/10/07 06:32:35;;;;;;;5.07;0.98;;;;;;;12.57;100.00;100146.34;5104964;27;20040;-90
2022/10/07 06:35:03;;;;;;;6.07;0.90;;;;;;;12.58;100.00;100158.63;5122245;27;20023;-90
2022/10/07 06:37:33;;;;;;;6.35;1.15;;;;;;;12.61;100.00;100151.16;5141942;27;20072;-91
2022/10/07 06:40:03;;;;;;;8.77;1.02;;;;;;;12.62;100.00;100152.00;5103330;28;20078;-91
2022/10/07 06:42:34;;;;;;;5.80;1.20;;;;;;;12.61;100.00;100151.16;5106176;27;20475;-92
2022/10/07 06:45:20;;;;;;;4.07;0.93;;;;;;;12.57;100.00;100144.53;5139559;27;20035;-92
2022/10/07 06:47:52;;;;;;;7.45;1.10;;;;;;;12.59;100.00;100152.31;5139782;27;20035;-89
2022/10/07 06:50:24;;;;;;;8.60;1.13;;;;;;;12.60;100.00;100138.91;5100734;27;20041;-92
2022/10/07 06:52:53;;;;;;;7.03;1.17;;;;;;;12.61;100.00;100126.47;5117421;27;20486;-90
2022/10/07 06:55:21;;;;;;;5.53;1.02;;;;;;;12.56;100.00;100121.69;5105328;27;20109;-89
2022/10/07 06:57:49;;;;;;;7.35;1.30;;;;;;;12.56;100.00;100119.03;5108429;27;20046;-90
2022/10/07 07:00:19;;;;;;;8.30;1.40;;;;;;;12.53;100.00;100130.78;5121692;27;20035;-91
2022/10/07 07:02:47;;;;;;;7.90;1.33;;;;;;;12.50;100.00;100119.69;5106829;27;20035;-89
2022/10/07 07:05:15;;;;;;;11.63;1.80;;;;;;;12.48;100.00;100130.47;5138821;27;20546;-91
2022/10/07 07:07:46;;;;;;;16.35;1.98;;;;;;;12.44;100.00;100129.13;5121879;27;20049;-94
2022/10/07 07:10:14;;;;;;;17.02;1.83;;;;;;;12.40;100.00;100130.44;5109913;27;20038;-90
2022/10/07 07:12:44;;;;;;;10.70;1.92;;;;;;;12.33;100.00;100130.25;5115444;27;20035;-89
2022/10/07 07:15:12;;;;;;;8.40;1.58;;;;;;;12.32;100.00;100130.44;5138726;27;20031;-91
2022/10/07 07:17:40;;;;;;;14.35;2.05;;;;;;;12.26;100.00;100142.53;5105621;27;20023;-91
2022/10/07 07:20:10;;;;;;;15.50;2.10;;;;;;;12.26;100.00;100143.34;5107401;28;20104;-92
2022/10/07 07:22:38;;;;;;;11.68;1.88;;;;;;;12.26;100.00;100145.16;5093385;28;20031;-91
2022/10/07 07:25:09;;;;;;;14.30;2.17;;;;;;;12.28;100.00;100145.81;5108063;28;20089;-89
2022/10/07 07:27:40;;;;;;;15.85;2.00;;;;;;;12.30;100.00;100148.31;5101811;27;20027;-89
2022/10/07 07:30:12;;;;;;;16.23;2.35;;;;;;;12.30;100.00;100156.25;5099498;27;20039;-92
2022/10/07 07:32:44;;;;;;;14.88;2.70;;;;;;;12.31;100.00;100157.94;5108168;27;20031;-91
2022/10/07 07:35:12;;;;;;;16.52;2.78;;;;;;;12.33;100.00;100169.19;5098942;27;20039;-90
2022/10/07 07:37:40;;;;;;;15.88;2.80;;;;;;;12.34;100.00;100169.00;5097501;28;20027;-89
2022/10/07 07:40:09;;;;;;;19.52;3.22;;;;;;;12.38;100.00;100167.72;5117460;27;20054;-91
2022/10/07 07:42:39;;;;;;;16.38;2.92;;;;;;;12.42;100.00;100159.44;5089381;27;20122;-89
2022/10/07 07:45:09;;;;;;;15.73;2.33;;;;;;;12.39;100.00;100168.56;5100297;27;20131;-92
2022/10/07 07:47:39;;;;;;;15.95;3.47;;;;;;;12.40;100.00;100173.69;5115689;28;20034;-90
2022/10/07 07:50:09;;;;;;;14.15;2.63;;;;;;;12.40;100.00;100176.34;5097286;27;20130;-90
2022/10/07 07:52:40;;;;;;;20.10;2.70;;;;;;;12.42;100.00;100188.59;5130032;27;20498;-92
2022/10/07 07:55:10;;;;;;;19.65;2.92;;;;;;;12.42;100.00;100196.53;5094228;28;20494;-91
2022/10/07 07:57:41;;;;;;;27.25;3.97;;;;;;;12.43;100.00;100192.91;5109939;27;20034;-92
2022/10/07 08:00:14;;;;;;;14.32;2.72;;;;;;;12.44;100.00;100199.88;5134303;27;20046;-90
2022/10/07 08:02:53;;;;;;;27.85;3.95;;;;;;;12.46;100.00;100211.13;5128632;27;20114;-88
2022/10/07 08:05:21;;;;;;;16.45;2.85;;;;;;;12.46;100.00;100219.06;5098451;27;20042;-89
2022/10/07 08:07:51;;;;;;;20.85;2.60;;;;;;;12.47;100.00;100226.88;5099429;27;20372;-92
2022/10/07 08:10:22;;;;;;;17.98;2.78;;;;;;;12.50;100.00;100210.63;5116614;27;20043;-91
2022/10/07 08:12:52;;;;;;;18.02;3.15;;;;;;;12.50;100.00;100210.63;5114120;28;20108;-90
2022/10/07 08:15:21;;;;;;;17.60;3.58;;;;;;;12.52;100.00;100219.25;5096846;27;20045;-91
2022/10/07 08:17:49;;;;;;;20.48;3.03;;;;;;;12.51;100.00;100222.06;5121331;27;20023;-90
2022/10/07 08:20:18;;;;;;;18.92;3.50;;;;;;;12.50;100.00;100212.47;5103350;27;20042;-94
2022/10/07 08:22:46;;;;;;;22.50;3.85;;;;;;;12.48;100.00;100222.41;5099061;27;20054;-91
2022/10/07 08:25:15;;;;;;;21.90;3.13;;;;;;;12.49;100.00;100224.06;5127534;27;20114;-89
2022/10/07 08:27:44;;;;;;;17.80;3.50;;;;;;;12.46;100.00;100217.25;5111907;27;20027;-91
2022/10/07 08:30:13;;;;;;;27.17;3.53;;;;;;;12.46;100.00;100222.56;5119712;27;20038;-89
2022/10/07 08:32:40;;;;;;;25.70;3.40;;;;;;;12.44;100.00;100224.53;5109783;28;20071;-92
2022/10/07 08:35:10;;;;;;;27.58;4.28;;;;;;;12.47;100.00;100228.72;5121272;27;20080;-90
2022/10/07 08:37:39;;;;;;;22.98;3.67;;;;;;;12.46;100.00;100224.38;5127440;27;20142;-87
2022/10/07 08:40:13;;;;;;;24.42;3.63;;;;;;;12.42;100.00;100223.88;5113661;27;20394;-93
2022/10/07 08:42:44;;;;;;;15.85;3.35;;;;;;;12.40;100.00;100236.47;5108722;27;20032;-91
2022/10/07 08:45:28;;;;;;;19.00;4.28;;;;;;;12.38;100.00;100230.50;5095932;28;20047;-92
2022/10/07 08:48:03;;;;;;;25.98;3.95;;;;;;;12.32;100.00;100233.78;5102547;28;20173;-92
2022/10/07 08:50:49;;;;;;;20.05;3.75;;;;;;;12.31;100.00;100245.38;5091017;28;20039;-92
2022/10/07 08:53:29;;;;;;;25.15;3.70;;;;;;;12.31;100.00;100240.09;5093856;27;20035;-92
2022/10/07 08:56:17;;;;;;;22.70;4.50;;;;;;;12.36;100.00;100243.09;5124604;27;20038;-88
2022/10/07 08:59:12;;;;;;;23.33;4.43;;;;;;;12.48;100.00;100247.09;5092394;27;20027;-92
2022/10/07 09:02:06;;;;;;;22.90;4.28;;;;;;;12.55;100.00;100251.75;5099296;27;20038;-90
2022/10/07 09:04:57;;;;;;;26.88;3.55;;;;;;;12.62;100.00;100250.09;5098559;27;20038;-91
2022/10/07 09:07:34;;;;;;;26.08;4.22;;;;;;;12.64;100.00;100258.72;5086500;27;20131;-91
2022/10/07 09:10:28;;;;;;;21.45;3.75;;;;;;;12.68;100.00;100253.94;5120874;27;20036;-90
2022/10/07 09:13:17;;;;;;;23.75;3.20;;;;;;;12.76;100.00;100256.56;5107792;27;20035;-91
2022/10/07 09:16:10;;;;;;;27.00;4.00;;;;;;;12.80;100.00;100254.44;5106044;28;20476;-90
2022/10/07 09:18:49;;;;;;;32.75;4.70;;;;;;;12.84;100.00;100256.59;5111614;27;20481;-92
2022/10/07 09:21:32;;;;;;;25.48;4.13;;;;;;;12.88;100.00;100236.69;5110830;27;20492;-90
2022/10/07 09:24:23;;;;;;;28.98;4.25;;;;;;;12.90;100.00;100236.53;5102577;28;20063;-90
2022/10/07 09:26:56;;;;;;;22.73;3.70;;;;;;;12.85;100.00;100225.59;5119530;27;20034;-93
2022/10/07 09:29:28;;;;;;;27.70;4.47;;;;;;;12.87;100.00;100226.25;5111581;28;20573;-89
2022/10/07 09:31:58;;;;;;;26.83;3.88;;;;;;;12.90;100.00;100231.22;5108977;27;20386;-91
2022/10/07 09:34:29;;;;;;;21.30;3.63;;;;;;;12.90;100.00;100244.50;5108998;27;20046;-89
2022/10/07 09:37:15;;;;;;;25.85;4.72;;;;;;;12.89;100.00;100237.53;5091318;28;20035;-88
2022/10/07 09:39:46;;;;;;;22.85;4.25;;;;;;;12.93;100.00;100246.00;5088990;28;20039;-94
2022/10/07 09:42:33;;;;;;;24.45;5.05;;;;;;;13.06;100.00;100251.63;5107568;27;20039;-93
2022/10/07 09:45:20;;;;;;;27.15;3.42;;;;;;;13.12;100.00;100247.50;5088033;27;20082;-91
2022/10/07 09:47:53;;;;;;;18.73;4.50;;;;;;;13.09;100.00;100246.00;5093286;28;20027;-88
2022/10/07 09:50:49;;;;;;;22.42;3.92;;;;;;;12.95;100.00;100252.78;5098368;27;20043;-88
2022/10/07 09:53:22;;;;;;;16.95;3.15;;;;;;;12.87;100.00;100258.91;5113013;27;21263;-91
2022/10/07 09:55:54;;;;;;;19.10;2.95;;;;;;;12.73;100.00;100256.91;5115956;27;20108;-93
2022/10/07 09:58:30;;;;;;;19.77;2.60;;;;;;;12.60;100.00;100260.03;5088364;28;20057;-89
2022/10/07 10:01:02;;;;;;;14.43;2.40;;;;;;;12.53;100.00;100260.69;5104735;27;20093;-91
2022/10/07 10:03:35;;;;;;;16.40;2.25;;;;;;;12.45;100.00;100254.53;5092387;28;20031;-89
2022/10/07 10:06:07;;;;;;;15.07;2.60;;;;;;;12.40;100.00;100265.63;5098702;28;20039;-90
2022/10/07 10:08:44;;;;;;;11.80;2.60;;;;;;;12.29;100.00;100256.16;5099395;28;20047;-91
2022/10/07 10:11:19;;;;;;;20.42;3.17;;;;;;;12.32;100.00;100258.47;5111142;28;20089;-91
2022/10/07 10:13:50;;;;;;;;;;;;;;;12.31;100.00;100264.75;5107892;28;20050;-91
2022/10/07 10:16:39;;;;;;;12.65;2.70;;;;;;;12.53;100.00;100258.03;5084250;28;19918;-89
2022/10/07 10:19:26;;;;;;;16.95;2.75;;;;;;;12.69;100.00;100259.06;5106553;28;20023;-90
2022/10/07 10:21:58;;;;;;;19.38;2.60;;;;;;;12.78;100.00;100252.78;5116660;28;20039;-90
2022/10/07 10:27:32;;;;;;;13.57;2.53;;;;;;;12.94;100.00;100261.75;5133901;27;20034;-90
2022/10/07 10:30:05;;;;;;;9.98;1.88;;;;;;;13.03;100.00;100267.88;5101255;28;20023;-92
2022/10/07 10:32:47;;;;;;;11.88;2.50;;;;;;;13.19;100.00;100264.41;5102430;28;20251;-90
2022/10/07 10:35:26;;;;;;;9.38;1.40;;;;;;;13.24;100.00;100264.75;5107891;28;20050;-90
2022/10/07 10:38:24;;;;;;;13.38;2.40;;;;;;;13.20;100.00;100271.41;5104333;28;20043;-88
2022/10/07 10:41:06;;;;;;;15.82;2.60;;;;;;;13.11;100.00;100273.19;5105205;28;20084;-87
2022/10/07 10:43:57;;;;;;;20.00;3.03;;;;;;;12.99;100.00;100271.88;5090859;28;20031;-90
2022/10/07 10:46:31;;;;;;;17.90;2.40;;;;;;;12.94;100.00;100280.31;5087627;28;20039;-91
2022/10/07 10:49:05;;;;;;;12.98;2.33;;;;;;;12.93;100.00;100280.50;5105743;28;20044;-92
2022/10/07 10:51:44;;;;;;;10.20;2.35;;;;;;;12.95;100.00;100276.66;5091210;28;20494;-89
2022/10/07 10:55:02;;;;;;;15.02;2.85;;;;;;;13.08;100.00;100284.16;5126446;27;20042;-88
2022/10/07 10:57:45;;;;;;;11.18;2.38;;;;;;;13.25;100.00;100284.97;5020172;28;20045;-90
2022/10/07 11:00:17;;;;;;;13.15;2.78;;;;;;;13.39;99.69;100283.47;5057442;28;20032;-90
2022/10/07 11:03:36;;;;;;;10.10;1.73;;;;;;;13.55;98.41;100278.38;5088925;28;20044;-90
2022/10/07 11:06:09;;;;;;;13.88;2.40;;;;;;;13.68;97.39;100272.53;5063828;28;20131;-91
2022/10/07 11:08:38;;;;;;;13.57;2.00;;;;;;;13.80;94.75;100273.84;5061856;28;20064;-90
2022/10/07 11:11:20;;;;;;;8.38;1.58;;;;;;;13.88;93.57;100273.81;5102310;27;20047;-88
2022/10/07 11:13:58;;;;;;;14.35;2.00;;;;;;;14.03;92.76;100278.41;5130082;27;20114;-90
2022/10/07 11:16:43;;;;;;;17.20;2.55;;;;;;;14.11;90.09;100275.72;5094533;27;20493;-90
2022/10/07 11:19:31;;;;;;;11.63;1.60;;;;;;;14.26;89.46;100273.19;5107953;27;20051;-90
2022/10/07 11:22:11;;;;;;;16.13;2.67;;;;;;;14.39;89.05;100283.25;5093847;28;20024;-90
2022/10/07 11:24:49;;;;;;;13.63;2.92;;;;;;;14.55;88.95;100272.69;5099094;28;20027;-88
2022/10/07 11:27:24;;;;;;;14.10;1.90;;;;;;;14.63;86.21;100260.19;5093273;27;20027;-87
2022/10/07 11:30:06;;;;;;;7.25;1.33;;;;;;;14.71;84.01;100248.66;5085409;28;20553;-90
2022/10/07 11:32:54;;;;;;;11.32;2.05;;;;;;;14.79;84.38;100262.91;5110757;28;20059;-89
2022/10/07 11:35:32;;;;;;;13.18;1.67;;;;;;;14.79;82.37;100262.91;5095480;28;20035;-90
2022/10/07 11:38:14;;;;;;;9.23;1.58;;;;;;;14.74;80.20;100258.97;5128160;27;20110;-90
2022/10/07 11:40:55;;;;;;;12.40;1.65;;;;;;;14.72;81.58;100263.63;5107281;27;20035;-92
2022/10/07 11:43:24;;;;;;;9.90;1.90;;;;;;;14.70;81.85;100270.13;5130792;27;20029;-91
2022/10/07 11:46:29;;;;;;;16.13;2.72;;;;;;;14.63;79.85;100254.88;5113467;27;20057;-91
2022/10/07 11:49:05;;;;;;;7.45;2.35;;;;;;;14.42;79.43;100282.06;5111279;27;20069;-89
2022/10/07 11:51:40;;;;;;;8.90;1.60;;;;;;;14.25;80.70;100283.97;5112764;27;20046;-88
2022/10/07 11:54:15;;;;;;;9.85;1.90;;;;;;;13.96;79.78;100294.22;5091812;27;20104;-91
2022/10/07 11:56:54;;;;;;;6.18;1.63;;;;;;;13.68;77.83;100289.28;5090040;27;20551;-90
2022/10/07 11:59:42;;;;;;;7.43;1.02;;;;;;;13.44;77.95;100306.06;5110364;27;20104;-89
2022/10/07 12:02:44;;;;;;;6.57;1.10;;;;;;;13.15;79.19;100300.25;5086738;27;20698;-89